Time;durP1;ratioP1;P1;durP2;ratioP2;P2;SDS_P1;SDS_P2;PMS_P1;PMS_P2;Temp;Humidity;BMP_temperature;BMP_pressure;BME280_temperature;BME280_humidity;BME280_pressure;Samples;Min_cycle;Max_cycle;Signal;HPM_P1;HPM_P2
2022/05/21 00:02:08;;;;;;;;;;;12.30;99.90;;;;;;5115307;28;19916;-76
2022/05/21 00:04:49;;;;;;;;;;;12.40;99.90;;;;;;5105032;28;19912;-75
2022/05/21 00:07:15;;;;;;;;;;;12.40;99.90;;;;;;5116287;28;20295;-75
2022/05/21 00:09:41;;;;;;;;;;;12.40;99.90;;;;;;5115543;28;20210;-75
2022/05/21 00:12:07;;;;;;;;;;;12.40;99.90;;;;;;5116251;28;19916;-75
2022/05/21 00:14:34;;;;;;;;;;;12.40;99.90;;;;;;5115363;28;19912;-75
2022/05/21 00:17:00;;;;;;;;;;;12.40;99.90;;;;;;5115143;28;19912;-75
2022/05/21 00:19:26;;;;;;;;;;;12.50;99.90;;;;;;5115032;28;19919;-75
2022/05/21 00:21:51;;;;;;;;;;;12.40;99.90;;;;;;5135996;27;19934;-75
2022/05/21 00:24:17;;;;;;;;;;;12.40;99.90;;;;;;5108701;28;20276;-75
2022/05/21 00:26:43;;;;;;;;;;;12.40;99.90;;;;;;5114600;27;19935;-75
2022/05/21 00:29:08;;;;;;;;;;;12.40;99.90;;;;;;5116586;28;19931;-75
2022/05/21 00:31:35;;;;;;;;;;;12.40;99.90;;;;;;5102466;28;19995;-76
2022/05/21 00:34:02;;;;;;;;;;;12.40;99.90;;;;;;5104699;28;19967;-75
2022/05/21 00:36:29;;;;;;;;;;;12.40;99.90;;;;;;5114251;28;20326;-75
2022/05/21 00:38:55;;;;;;;;;;;12.50;99.90;;;;;;5105400;28;19931;-76
2022/05/21 00:41:21;;;;;;;;;;;12.50;99.90;;;;;;5106864;27;19915;-75
2022/05/21 00:43:48;;;;;;;;;;;12.50;99.90;;;;;;5104559;28;20203;-75
2022/05/21 00:46:16;;;;;;;;;;;12.50;99.90;;;;;;5115973;28;20318;-74
2022/05/21 00:48:42;;;;;;;;;;;12.60;99.90;;;;;;5103391;27;20535;-74
2022/05/21 00:51:10;;;;;;;;;;;12.60;99.90;;;;;;5116011;28;19916;-75
2022/05/21 00:53:36;;;;;;;;;;;12.60;99.90;;;;;;5116489;28;19918;-75
2022/05/21 00:56:03;;;;;;;;;;;12.60;99.90;;;;;;5115282;28;19908;-74
2022/05/21 01:01:15;;;;;;;;;;;12.70;99.90;;;;;;5097658;27;20307;-76
2022/05/21 01:03:42;;;;;;;;;;;12.60;99.90;;;;;;5103265;28;20289;-74
2022/05/21 01:06:08;;;;;;;;;;;12.70;99.90;;;;;;5116018;28;19919;-76
2022/05/21 01:08:34;;;;;;;;;;;12.60;99.90;;;;;;5107554;28;19911;-74
2022/05/21 01:11:01;;;;;;;;;;;12.70;99.90;;;;;;5113446;28;19937;-75
2022/05/21 01:13:29;;;;;;;;;;;12.70;99.90;;;;;;5110719;28;19916;-75
2022/05/21 01:15:54;;;;;;;;;;;12.60;99.90;;;;;;5114803;28;20363;-77
2022/05/21 01:18:21;;;;;;;;;;;12.60;99.90;;;;;;5113121;28;19916;-75
2022/05/21 01:20:48;;;;;;;;;;;12.70;99.90;;;;;;5110709;28;20330;-75
2022/05/21 01:23:18;;;;;;;;;;;12.60;99.90;;;;;;5106631;28;19918;-75
2022/05/21 01:25:44;;;;;;;;;;;12.60;99.90;;;;;;5107687;28;19912;-74
2022/05/21 01:28:12;;;;;;;;;;;12.70;99.90;;;;;;5105811;28;20011;-74
2022/05/21 01:30:43;;;;;;;;;;;12.70;99.90;;;;;;5110206;28;19912;-74
2022/05/21 01:33:10;;;;;;;;;;;12.70;99.90;;;;;;5108284;28;19920;-74
2022/05/21 01:35:36;;;;;;;;;;;12.70;99.90;;;;;;5108284;28;20460;-75
2022/05/21 01:38:02;;;;;;;;;;;12.80;99.90;;;;;;5107367;28;19919;-74
2022/05/21 01:40:28;;;;;;;;;;;12.70;99.90;;;;;;5104254;28;19920;-75
2022/05/21 01:45:38;;;;;;;;;;;12.70;99.90;;;;;;5112275;28;19991;-75
2022/05/21 01:48:04;;;;;;;;;;;12.80;99.90;;;;;;5108804;28;20139;-75
2022/05/21 01:50:30;;;;;;;;;;;12.80;99.90;;;;;;5113145;28;19947;-75
2022/05/21 01:52:56;;;;;;;;;;;12.80;99.90;;;;;;5114163;28;19911;-76
2022/05/21 01:55:21;;;;;;;;;;;12.80;99.90;;;;;;5109142;28;19922;-75
2022/05/21 01:57:47;;;;;;;;;;;12.90;99.90;;;;;;5114634;28;20302;-75
2022/05/21 02:00:14;;;;;;;;;;;12.90;99.90;;;;;;5114234;28;20014;-76
2022/05/21 02:02:39;;;;;;;;;;;12.90;99.90;;;;;;5110811;28;19912;-75
2022/05/21 02:05:05;;;;;;;;;;;12.90;99.90;;;;;;5105739;28;19912;-76
2022/05/21 02:07:32;;;;;;;;;;;12.90;99.90;;;;;;5112991;28;19923;-75
2022/05/21 02:09:58;;;;;;;;;;;12.90;99.90;;;;;;5119609;28;19953;-74
2022/05/21 02:12:24;;;;;;;;;;;12.80;99.90;;;;;;5115230;27;20010;-75
2022/05/21 02:14:50;;;;;;;;;;;12.90;99.90;;;;;;5113027;27;19918;-74
2022/05/21 02:17:16;;;;;;;;;;;12.90;99.90;;;;;;5116903;27;19916;-76
2022/05/21 02:19:42;;;;;;;;;;;12.90;99.90;;;;;;5111578;27;20199;-76
2022/05/21 02:22:08;;;;;;;;;;;12.90;99.90;;;;;;5117500;28;19926;-75
2022/05/21 02:24:34;;;;;;;;;;;12.90;99.90;;;;;;5119657;28;19908;-75
2022/05/21 02:26:59;;;;;;;;;;;12.90;99.90;;;;;;5117047;28;19912;-75
2022/05/21 02:29:25;;;;;;;;;;;12.90;99.90;;;;;;5127897;27;19941;-75
2022/05/21 02:31:51;;;;;;;;;;;12.90;99.90;;;;;;5119181;28;19911;-75
2022/05/21 02:34:17;;;;;;;;;;;12.90;99.90;;;;;;5136887;27;19919;-75
2022/05/21 02:39:28;;;;;;;;;;;12.90;99.90;;;;;;5116566;28;19931;-76
2022/05/21 02:41:58;;;;;;;;;;;12.80;99.90;;;;;;5119071;28;19908;-75
2022/05/21 02:44:24;;;;;;;;;;;12.80;99.90;;;;;;5109464;28;19912;-77
2022/05/21 02:46:50;;;;;;;;;;;12.80;99.90;;;;;;5106704;28;20302;-75
2022/05/21 02:49:15;;;;;;;;;;;12.80;99.90;;;;;;5114827;27;20242;-75
2022/05/21 02:51:41;;;;;;;;;;;12.80;99.90;;;;;;5115540;28;20014;-77
2022/05/21 02:54:09;;;;;;;;;;;12.80;99.90;;;;;;5102415;28;20199;-75
2022/05/21 02:56:36;;;;;;;;;;;12.80;99.90;;;;;;5118905;28;19916;-74
2022/05/21 02:59:06;;;;;;;;;;;12.80;99.90;;;;;;5117645;28;19954;-76
2022/05/21 03:01:33;;;;;;;;;;;12.70;99.90;;;;;;5117518;28;19916;-75
2022/05/21 03:03:59;;;;;;;;;;;12.70;99.90;;;;;;5116464;28;19908;-76
2022/05/21 03:06:25;;;;;;;;;;;12.60;99.90;;;;;;5118198;28;20230;-75
2022/05/21 03:11:35;;;;;;;;;;;12.50;99.90;;;;;;5098190;28;19922;-74
2022/05/21 03:14:01;;;;;;;;;;;12.50;99.90;;;;;;5110339;27;20010;-75
2022/05/21 03:16:26;;;;;;;;;;;12.50;99.90;;;;;;5111355;28;20010;-75
2022/05/21 03:18:52;;;;;;;;;;;12.40;99.90;;;;;;5114165;28;19965;-75
2022/05/21 03:21:18;;;;;;;;;;;12.40;99.90;;;;;;5116893;28;19919;-74
2022/05/21 03:23:44;;;;;;;;;;;12.30;99.90;;;;;;5151449;27;19912;-75
2022/05/21 03:26:09;;;;;;;;;;;12.30;99.90;;;;;;5116294;28;20295;-75
2022/05/21 03:28:35;;;;;;;;;;;12.20;99.90;;;;;;5095279;28;19942;-75
2022/05/21 03:31:02;;;;;;;;;;;12.20;99.90;;;;;;5104092;28;20286;-74
2022/05/21 03:33:27;;;;;;;;;;;12.10;99.90;;;;;;5097904;28;19913;-75
2022/05/21 03:35:53;;;;;;;;;;;12.10;99.90;;;;;;5097814;28;19908;-74
2022/05/21 03:38:19;;;;;;;;;;;12.10;99.90;;;;;;5134750;27;20311;-74
2022/05/21 03:40:44;;;;;;;;;;;12.10;99.90;;;;;;5106190;28;19922;-75
2022/05/21 03:43:10;;;;;;;;;;;12.00;99.90;;;;;;5114787;28;20350;-74
2022/05/21 03:45:36;;;;;;;;;;;12.00;99.90;;;;;;5102679;28;19912;-76
2022/05/21 03:48:03;;;;;;;;;;;12.00;99.90;;;;;;5111472;27;19912;-74
2022/05/21 03:50:31;;;;;;;;;;;12.00;99.90;;;;;;5097913;28;19912;-74
2022/05/21 03:52:57;;;;;;;;;;;12.00;99.90;;;;;;5096369;28;19969;-74
2022/05/21 03:55:23;;;;;;;;;;;12.00;99.90;;;;;;5096079;28;20261;-74
2022/05/21 03:57:48;;;;;;;;;;;12.00;99.90;;;;;;5109427;27;19922;-80
2022/05/21 04:00:26;;;;;;;;;;;12.00;99.90;;;;;;5101860;28;19912;-75
2022/05/21 04:02:52;;;;;;;;;;;12.00;99.90;;;;;;5108731;28;19964;-78
2022/05/21 04:05:17;;;;;;;;;;;12.00;99.90;;;;;;5112155;28;19912;-74
2022/05/21 04:07:43;;;;;;;;;;;12.00;99.90;;;;;;5113536;28;20218;-75
2022/05/21 04:10:10;;;;;;;;;;;12.10;99.90;;;;;;5110867;28;19931;-74
2022/05/21 04:12:36;;;;;;;;;;;12.10;99.90;;;;;;5113947;28;20543;-74
2022/05/21 04:15:01;;;;;;;;;;;12.10;99.90;;;;;;5113796;27;19912;-75
2022/05/21 04:17:27;;;;;;;;;;;12.10;99.90;;;;;;5114607;28;19923;-75
2022/05/21 04:19:54;;;;;;;;;;;12.20;99.90;;;;;;5112007;28;19916;-75
2022/05/21 04:22:20;;;;;;;;;;;12.20;99.90;;;;;;5112161;28;19965;-75
2022/05/21 04:24:45;;;;;;;;;;;12.20;99.90;;;;;;5111132;27;19916;-75
2022/05/21 04:27:11;;;;;;;;;;;12.20;99.90;;;;;;5108522;28;19916;-74
2022/05/21 04:29:36;;;;;;;;;;;12.30;99.90;;;;;;5111360;27;19912;-74
2022/05/21 04:32:03;;;;;;;;;;;12.30;99.90;;;;;;5109595;28;19912;-76
2022/05/21 04:34:28;;;;;;;;;;;12.40;99.90;;;;;;5113315;28;19943;-76
2022/05/21 04:36:54;;;;;;;;;;;12.40;99.90;;;;;;5113815;28;20195;-75
2022/05/21 04:39:19;;;;;;;;;;;12.40;99.90;;;;;;5104965;27;19973;-74
2022/05/21 04:41:45;;;;;;;;;;;12.40;99.90;;;;;;5114179;28;20044;-74
2022/05/21 04:44:11;;;;;;;;;;;12.40;99.90;;;;;;5114698;28;19915;-75
2022/05/21 04:46:37;;;;;;;;;;;12.40;99.90;;;;;;5112221;28;19961;-76
2022/05/21 04:49:03;;;;;;;;;;;12.40;99.90;;;;;;5105914;28;19920;-77
2022/05/21 04:51:29;;;;;;;;;;;12.40;99.90;;;;;;5113569;28;20006;-77
2022/05/21 04:53:55;;;;;;;;;;;12.30;99.90;;;;;;5112496;28;19920;-78
2022/05/21 04:56:20;;;;;;;;;;;12.30;99.90;;;;;;5113660;28;19985;-77
2022/05/21 04:58:46;;;;;;;;;;;12.30;99.90;;;;;;5105362;28;19969;-78
2022/05/21 05:01:12;;;;;;;;;;;12.30;99.90;;;;;;5112489;28;19919;-78
2022/05/21 05:03:38;;;;;;;;;;;12.30;99.90;;;;;;5139832;27;19912;-77
2022/05/21 05:06:05;;;;;;;;;;;12.40;99.90;;;;;;5113056;28;19915;-76
2022/05/21 05:08:31;;;;;;;;;;;12.40;99.90;;;;;;5108500;28;19920;-77
2022/05/21 05:10:57;;;;;;;;;;;12.50;99.90;;;;;;5109053;28;20313;-76
2022/05/21 05:13:23;;;;;;;;;;;12.50;99.90;;;;;;5101124;28;20006;-77
2022/05/21 05:15:48;;;;;;;;;;;12.60;99.90;;;;;;5104968;28;20008;-78
2022/05/21 05:18:16;;;;;;;;;;;12.60;99.90;;;;;;5112207;28;19922;-76
2022/05/21 05:20:42;;;;;;;;;;;12.60;99.90;;;;;;5112306;28;19923;-75
2022/05/21 05:23:08;;;;;;;;;;;12.70;99.90;;;;;;5112412;28;19915;-76
2022/05/21 05:25:34;;;;;;;;;;;12.70;99.90;;;;;;5096589;28;19952;-78
2022/05/21 05:28:00;;;;;;;;;;;12.80;99.90;;;;;;5106915;28;19997;-79
2022/05/21 05:30:26;;;;;;;;;;;12.80;99.90;;;;;;5109390;28;19920;-79
2022/05/21 05:32:52;;;;;;;;;;;12.80;99.90;;;;;;5115067;28;19908;-77
2022/05/21 05:35:18;;;;;;;;;;;12.90;99.90;;;;;;5102707;28;20249;-77
2022/05/21 05:37:44;;;;;;;;;;;13.00;99.90;;;;;;5109657;28;20330;-77
2022/05/21 05:40:11;;;;;;;;;;;13.00;99.90;;;;;;5112708;28;19916;-78
2022/05/21 05:42:37;;;;;;;;;;;13.00;99.90;;;;;;5114675;28;19911;-78
2022/05/21 05:45:04;;;;;;;;;;;13.00;99.90;;;;;;5116050;28;20339;-76
2022/05/21 05:47:31;;;;;;;;;;;13.10;99.90;;;;;;5115159;28;19915;-78
2022/05/21 05:49:57;;;;;;;;;;;13.10;99.90;;;;;;5115189;28;19940;-77
2022/05/21 05:52:23;;;;;;;;;;;13.20;99.90;;;;;;5117444;28;19912;-77
2022/05/21 05:54:49;;;;;;;;;;;13.20;99.90;;;;;;5117273;28;20371;-76
2022/05/21 05:57:15;;;;;;;;;;;13.20;99.90;;;;;;5115286;28;19927;-77
2022/05/21 05:59:50;;;;;;;;;;;13.20;99.90;;;;;;5111324;28;20277;-76
2022/05/21 06:05:01;;;;;;;;;;;13.30;99.90;;;;;;5117521;28;19992;-76
2022/05/21 06:07:26;;;;;;;;;;;13.30;99.90;;;;;;5109684;28;19916;-77
2022/05/21 06:09:52;;;;;;;;;;;13.40;99.90;;;;;;5117499;28;20207;-77
2022/05/21 06:12:18;;;;;;;;;;;13.40;99.90;;;;;;5116800;28;19920;-81
2022/05/21 06:14:45;;;;;;;;;;;13.50;99.90;;;;;;5109909;28;20018;-77
2022/05/21 06:17:11;;;;;;;;;;;13.50;99.90;;;;;;5111069;28;19916;-82
2022/05/21 06:19:37;;;;;;;;;;;13.50;99.90;;;;;;5116268;27;19922;-79
2022/05/21 06:22:03;;;;;;;;;;;13.50;99.90;;;;;;5109343;28;19919;-76
2022/05/21 06:24:33;;;;;;;;;;;13.50;99.90;;;;;;5118075;28;19923;-78
2022/05/21 06:26:58;;;;;;;;;;;13.60;99.90;;;;;;5090455;28;19920;-78
2022/05/21 06:29:24;;;;;;;;;;;13.60;99.90;;;;;;5112854;28;19919;-77
2022/05/21 06:31:49;;;;;;;;;;;13.60;99.90;;;;;;5109457;28;19916;-78
2022/05/21 06:34:15;;;;;;;;;;;13.60;99.90;;;;;;5109706;28;19920;-78
2022/05/21 06:36:41;;;;;;;;;;;13.70;99.90;;;;;;5110430;28;19951;-76
2022/05/21 06:39:06;;;;;;;;;;;13.80;99.90;;;;;;5108369;27;20324;-78
2022/05/21 06:41:32;;;;;;;;;;;13.80;99.90;;;;;;5115780;28;20011;-79
2022/05/21 06:43:58;;;;;;;;;;;13.80;99.90;;;;;;5108484;28;20007;-76
2022/05/21 06:46:24;;;;;;;;;;;13.90;99.90;;;;;;5114430;27;20303;-78
2022/05/21 06:48:50;;;;;;;;;;;13.90;99.90;;;;;;5111059;27;20237;-77
2022/05/21 06:51:16;;;;;;;;;;;14.00;99.90;;;;;;5108655;28;19916;-79
2022/05/21 06:53:41;;;;;;;;;;;14.00;99.90;;;;;;5104543;27;19916;-78
2022/05/21 06:56:08;;;;;;;;;;;14.10;99.90;;;;;;5108994;28;20196;-78
2022/05/21 06:58:34;;;;;;;;;;;14.20;99.90;;;;;;5109895;28;19923;-80
2022/05/21 07:01:00;;;;;;;;;;;14.20;99.90;;;;;;5109037;28;19919;-77
2022/05/21 07:03:25;;;;;;;;;;;14.10;99.90;;;;;;5098635;28;19912;-77
2022/05/21 07:08:36;;;;;;;;;;;14.30;99.90;;;;;;5098225;28;19923;-80
2022/05/21 07:11:01;;;;;;;;;;;14.40;99.90;;;;;;5097946;28;20314;-78
2022/05/21 07:13:30;;;;;;;;;;;14.40;99.90;;;;;;5100598;28;19919;-78
2022/05/21 07:15:56;;;;;;;;;;;14.50;99.90;;;;;;5108971;28;20321;-77
2022/05/21 07:18:22;;;;;;;;;;;14.60;99.90;;;;;;5105934;27;19924;-76
2022/05/21 07:20:49;;;;;;;;;;;14.70;99.90;;;;;;5113022;28;19908;-80
2022/05/21 07:23:15;;;;;;;;;;;14.80;99.90;;;;;;5111842;27;19920;-76
2022/05/21 07:25:41;;;;;;;;;;;14.90;99.90;;;;;;5113154;28;19911;-77
2022/05/21 07:28:07;;;;;;;;;;;15.00;99.90;;;;;;5114141;28;19916;-76
2022/05/21 07:30:34;;;;;;;;;;;15.20;99.90;;;;;;5116729;28;19908;-79
2022/05/21 07:32:59;;;;;;;;;;;15.30;99.90;;;;;;5109535;28;19912;-77
2022/05/21 07:35:26;;;;;;;;;;;15.60;99.90;;;;;;5114292;28;20196;-78
2022/05/21 07:37:52;;;;;;;;;;;16.00;99.90;;;;;;5111804;28;19919;-75
2022/05/21 07:40:19;;;;;;;;;;;16.30;99.90;;;;;;5111309;28;20207;-78
2022/05/21 07:42:44;;;;;;;;;;;16.60;99.90;;;;;;5097933;28;20206;-76
2022/05/21 07:45:11;;;;;;;;;;;16.50;99.90;;;;;;5116181;28;20015;-78
2022/05/21 07:47:37;;;;;;;;;;;16.30;99.90;;;;;;5100980;28;19912;-76
2022/05/21 07:50:03;;;;;;;;;;;16.40;99.90;;;;;;5096442;28;20269;-78
2022/05/21 07:52:29;;;;;;;;;;;16.70;99.90;;;;;;5100548;28;20353;-78
2022/05/21 07:54:55;;;;;;;;;;;17.20;99.90;;;;;;5103144;28;19919;-78
2022/05/21 07:57:21;;;;;;;;;;;17.40;99.90;;;;;;5115238;28;19956;-78
2022/05/21 07:59:47;;;;;;;;;;;17.40;99.90;;;;;;5140792;27;19958;-77
2022/05/21 08:02:15;;;;;;;;;;;17.70;99.90;;;;;;5115560;28;20306;-76
2022/05/21 08:04:41;;;;;;;;;;;17.70;99.90;;;;;;5108739;28;19916;-77
2022/05/21 08:07:07;;;;;;;;;;;17.80;99.90;;;;;;5110719;28;19908;-78
2022/05/21 08:09:33;;;;;;;;;;;18.00;99.90;;;;;;5106631;27;20199;-76
2022/05/21 08:11:59;;;;;;;;;;;18.00;99.90;;;;;;5116634;28;20252;-77
2022/05/21 08:14:24;;;;;;;;;;;18.10;99.90;;;;;;5107285;28;19923;-77
2022/05/21 08:16:50;;;;;;;;;;;18.10;99.90;;;;;;5115506;28;20631;-79
2022/05/21 08:19:16;;;;;;;;;;;18.40;99.90;;;;;;5115354;27;19919;-76
2022/05/21 08:21:42;;;;;;;;;;;18.50;99.90;;;;;;5110539;28;19920;-78
2022/05/21 08:29:20;;;;;;;;;;;18.00;99.90;;;;;;5113764;28;20306;-77
2022/05/21 08:31:46;;;;;;;;;;;18.30;99.90;;;;;;5097123;28;19912;-77
2022/05/21 08:34:12;;;;;;;;;;;18.10;99.90;;;;;;5112751;28;20218;-77
2022/05/21 08:36:38;;;;;;;;;;;17.70;99.90;;;;;;5105997;28;20219;-75
2022/05/21 08:39:04;;;;;;;;;;;17.80;99.90;;;;;;5106505;28;20235;-78
2022/05/21 08:41:31;;;;;;;;;;;17.90;99.90;;;;;;5097220;28;20038;-77
2022/05/21 08:44:07;;;;;;;;;;;17.90;99.90;;;;;;5102713;28;20242;-77
2022/05/21 08:46:40;;;;;;;;;;;17.90;99.90;;;;;;5115670;28;19915;-79
2022/05/21 08:49:26;;;;;;;;;;;18.10;99.90;;;;;;5116804;28;19938;-78
2022/05/21 08:52:01;;;;;;;;;;;18.30;99.90;;;;;;5113752;28;19919;-79
2022/05/21 08:54:31;;;;;;;;;;;18.70;99.90;;;;;;5103499;28;19916;-75
2022/05/21 08:56:56;;;;;;;;;;;18.80;99.90;;;;;;5112706;28;19922;-78
2022/05/21 08:59:24;;;;;;;;;;;18.70;99.90;;;;;;5116282;28;19920;-76
2022/05/21 09:01:50;;;;;;;;;;;18.60;99.90;;;;;;5115039;28;19919;-79
2022/05/21 09:04:16;;;;;;;;;;;18.70;99.90;;;;;;5097998;28;19919;-80
2022/05/21 09:06:54;;;;;;;;;;;18.30;99.90;;;;;;5149721;27;19916;-76
2022/05/21 09:09:23;;;;;;;;;;;18.30;99.90;;;;;;5116599;28;19953;-79
2022/05/21 09:11:55;;;;;;;;;;;18.20;99.90;;;;;;5115126;28;19916;-77
2022/05/21 09:14:35;;;;;;;;;;;17.90;99.90;;;;;;5108360;27;20343;-77
2022/05/21 09:17:01;;;;;;;;;;;18.40;99.90;;;;;;5107023;28;21848;-76
2022/05/21 09:19:37;;;;;;;;;;;18.60;99.90;;;;;;5111656;28;20018;-77
2022/05/21 09:22:05;;;;;;;;;;;19.00;99.90;;;;;;5113735;28;19918;-82
2022/05/21 09:24:32;;;;;;;;;;;19.20;99.90;;;;;;5111152;28;19916;-77
2022/05/21 09:26:58;;;;;;;;;;;19.40;99.90;;;;;;5113841;28;19919;-79
2022/05/21 09:29:26;;;;;;;;;;;19.70;99.90;;;;;;5111176;28;19920;-79
2022/05/21 09:31:53;;;;;;;;;;;19.60;99.90;;;;;;5104713;28;19923;-79
2022/05/21 09:34:24;;;;;;;;;;;19.20;99.90;;;;;;5105626;28;19916;-77
2022/05/21 09:36:50;;;;;;;;;;;19.20;99.90;;;;;;5129850;27;19916;-77
2022/05/21 09:39:29;;;;;;;;;;;19.40;99.90;;;;;;5107600;28;19932;-80
2022/05/21 09:42:07;;;;;;;;;;;19.30;99.90;;;;;;5104059;28;19916;-77
2022/05/21 09:47:25;;;;;;;;;;;19.30;99.90;;;;;;5110447;28;19961;-78
2022/05/21 09:50:03;;;;;;;;;;;19.30;99.90;;;;;;5111292;28;19912;-76
2022/05/21 09:52:30;;;;;;;;;;;19.10;99.90;;;;;;5105553;28;19916;-76
2022/05/21 09:54:56;;;;;;;;;;;19.00;99.90;;;;;;5105918;28;20602;-76
2022/05/21 09:57:23;;;;;;;;;;;18.70;99.90;;;;;;5107389;28;19917;-78
2022/05/21 10:00:09;;;;;;;;;;;18.70;99.90;;;;;;5110102;28;19915;-78
2022/05/21 10:02:39;;;;;;;;;;;19.00;99.90;;;;;;5090529;28;20243;-76
2022/05/21 10:05:06;;;;;;;;;;;19.30;99.90;;;;;;5109768;28;19915;-76
2022/05/21 10:13:09;;;;;;;;;;;19.00;99.90;;;;;;5103389;28;20007;-77
2022/05/21 10:15:39;;;;;;;;;;;18.90;99.90;;;;;;5107139;28;20026;-77
2022/05/21 10:18:12;;;;;;;;;;;18.80;99.90;;;;;;5111197;28;19952;-76
2022/05/21 10:20:39;;;;;;;;;;;18.70;99.90;;;;;;5107048;28;19984;-76
2022/05/21 10:23:21;;;;;;;;;;;19.00;99.90;;;;;;5090943;28;19990;-77
2022/05/21 10:26:01;;;;;;;;;;;18.90;99.90;;;;;;5108224;28;19911;-76
2022/05/21 10:28:45;;;;;;;;;;;19.10;99.90;;;;;;5111014;28;19912;-77
2022/05/21 10:31:13;;;;;;;;;;;19.00;99.90;;;;;;5106212;28;20307;-77
2022/05/21 10:33:41;;;;;;;;;;;19.00;99.90;;;;;;5112813;28;19915;-77
2022/05/21 10:36:26;;;;;;;;;;;18.80;99.90;;;;;;5115459;28;19919;-77
2022/05/21 10:39:06;;;;;;;;;;;18.90;99.90;;;;;;5111098;28;19931;-78
2022/05/21 10:41:51;;;;;;;;;;;19.00;99.90;;;;;;5108168;28;19923;-77
2022/05/21 10:44:28;;;;;;;;;;;19.10;99.90;;;;;;5109505;28;20010;-76
2022/05/21 10:46:57;;;;;;;;;;;19.40;99.90;;;;;;5105916;28;20326;-76
2022/05/21 10:49:26;;;;;;;;;;;19.40;99.90;;;;;;5111613;28;19920;-75
2022/05/21 10:52:10;;;;;;;;;;;19.40;99.90;;;;;;5113192;28;19923;-77
2022/05/21 10:54:36;;;;;;;;;;;19.50;99.90;;;;;;5112536;28;19923;-76
2022/05/21 10:57:14;;;;;;;;;;;19.40;99.90;;;;;;5113119;28;20210;-77
2022/05/21 10:59:48;;;;;;;;;;;19.40;99.90;;;;;;5104839;28;19977;-76
2022/05/21 11:02:33;;;;;;;;;;;19.50;99.90;;;;;;5103746;27;19923;-75
2022/05/21 11:05:08;;;;;;;;;;;19.50;99.90;;;;;;5108227;28;19927;-77
2022/05/21 11:07:40;;;;;;;;;;;19.40;99.90;;;;;;5112313;28;19998;-76
2022/05/21 11:10:12;;;;;;;;;;;19.40;99.90;;;;;;5111832;28;19972;-75
2022/05/21 11:12:56;;;;;;;;;;;19.20;99.90;;;;;;5104431;28;19912;-77
2022/05/21 11:15:22;;;;;;;;;;;19.30;99.90;;;;;;5111882;28;20248;-78
2022/05/21 11:17:57;;;;;;;;;;;19.30;99.90;;;;;;5112393;27;19926;-77
2022/05/21 11:20:35;;;;;;;;;;;19.20;99.90;;;;;;5105062;28;19959;-77
2022/05/21 11:23:07;;;;;;;;;;;19.00;99.90;;;;;;5105858;28;19969;-78
2022/05/21 11:25:36;;;;;;;;;;;18.90;99.90;;;;;;5112701;28;20018;-77
2022/05/21 11:28:15;;;;;;;;;;;19.10;99.90;;;;;;5110203;27;19926;-77
2022/05/21 11:30:41;;;;;;;;;;;19.20;99.90;;;;;;5111158;28;20355;-78
2022/05/21 11:38:45;;;;;;;;;;;19.40;99.90;;;;;;5111522;28;20214;-77
2022/05/21 11:41:25;;;;;;;;;;;19.50;99.90;;;;;;5105600;28;20298;-77
2022/05/21 11:47:13;;;;;;;;;;;20.30;99.90;;;;;;5111939;28;20320;-77
2022/05/21 11:49:41;;;;;;;;;;;20.90;99.90;;;;;;5106245;28;19923;-75
2022/05/21 11:52:25;;;;;;;;;;;21.00;99.90;;;;;;5103929;28;20035;-77
2022/05/21 11:54:51;;;;;;;;;;;20.80;99.90;;;;;;5108339;28;20263;-77
2022/05/21 11:57:37;;;;;;;;;;;20.90;99.90;;;;;;5105020;28;20007;-75
2022/05/21 12:00:08;;;;;;;;;;;21.00;99.90;;;;;;5108301;28;19972;-77
2022/05/21 12:02:35;;;;;;;;;;;21.20;99.90;;;;;;5110472;28;19984;-77
2022/05/21 12:05:05;;;;;;;;;;;21.40;99.90;;;;;;5109805;28;19915;-75
2022/05/21 12:07:40;;;;;;;;;;;21.60;99.90;;;;;;5109281;28;19965;-77
2022/05/21 12:10:19;;;;;;;;;;;21.90;99.90;;;;;;5110070;28;20405;-74
2022/05/21 12:13:03;;;;;;;;;;;21.80;99.90;;;;;;5109712;28;20481;-76
2022/05/21 12:15:38;;;;;;;;;;;21.50;99.90;;;;;;5104418;28;19916;-76
2022/05/21 12:18:06;;;;;;;;;;;21.40;99.90;;;;;;5105633;28;20288;-75
2022/05/21 12:20:43;;;;;;;;;;;21.40;99.90;;;;;;5103524;28;20332;-77
2022/05/21 12:23:34;;;;;;;;;;;21.40;99.90;;;;;;5111874;28;20468;-78
2022/05/21 12:26:01;;;;;;;;;;;21.40;99.90;;;;;;5105543;28;19916;-77
2022/05/21 12:28:33;;;;;;;;;;;21.30;99.90;;;;;;5109217;28;19985;-76
2022/05/21 12:31:00;;;;;;;;;;;21.30;99.90;;;;;;5108171;28;19937;-76
2022/05/21 12:33:38;;;;;;;;;;;21.10;99.90;;;;;;5109760;28;20459;-75
2022/05/21 12:36:18;;;;;;;;;;;20.90;99.90;;;;;;5110231;28;19916;-76
2022/05/21 12:38:46;;;;;;;;;;;20.70;99.90;;;;;;5108771;28;19977;-76
2022/05/21 12:41:15;;;;;;;;;;;20.40;99.90;;;;;;5108803;28;20310;-76
2022/05/21 12:43:48;;;;;;;;;;;20.30;99.90;;;;;;5108880;28;20269;-75
2022/05/21 12:46:22;;;;;;;;;;;20.00;99.90;;;;;;5110387;28;19923;-76
2022/05/21 12:48:49;;;;;;;;;;;19.50;99.90;;;;;;5109763;28;19951;-76
2022/05/21 12:51:41;;;;;;;;;;;19.50;99.90;;;;;;5107401;28;19919;-76
2022/05/21 12:54:18;;;;;;;;;;;19.40;99.90;;;;;;5107174;28;19970;-77
2022/05/21 12:56:44;;;;;;;;;;;19.50;99.90;;;;;;5109890;28;19916;-76
2022/05/21 12:59:19;;;;;;;;;;;19.50;99.90;;;;;;5110184;28;19934;-77
2022/05/21 13:01:59;;;;;;;;;;;19.50;99.90;;;;;;5103372;28;19915;-75
2022/05/21 13:04:24;;;;;;;;;;;19.40;99.90;;;;;;5109892;28;19919;-76
2022/05/21 13:06:52;;;;;;;;;;;19.40;99.90;;;;;;5110543;28;19920;-76
2022/05/21 13:09:18;;;;;;;;;;;19.50;99.90;;;;;;5110058;28;19916;-75
2022/05/21 13:11:44;;;;;;;;;;;19.30;99.90;;;;;;5109933;28;19957;-79
2022/05/21 13:14:11;;;;;;;;;;;19.10;99.90;;;;;;5111669;28;19923;-75
2022/05/21 13:16:49;;;;;;;;;;;18.90;99.90;;;;;;5110421;28;20503;-75
2022/05/21 13:19:21;;;;;;;;;;;18.70;99.90;;;;;;5109806;28;19919;-75
2022/05/21 13:21:52;;;;;;;;;;;18.60;99.90;;;;;;5102128;28;20321;-75
2022/05/21 13:24:39;;;;;;;;;;;18.50;99.90;;;;;;5110140;28;20002;-75
2022/05/21 13:27:08;;;;;;;;;;;18.60;99.90;;;;;;5102298;28;20214;-77
2022/05/21 13:29:34;;;;;;;;;;;18.50;99.90;;;;;;5108782;28;19919;-77
2022/05/21 13:32:32;;;;;;;;;;;18.50;99.90;;;;;;5106026;28;19968;-76
2022/05/21 13:35:01;;;;;;;;;;;18.60;99.90;;;;;;5022316;28;19924;-76
2022/05/21 13:37:38;;;;;;;;;;;18.90;99.90;;;;;;5027758;28;19925;-75
2022/05/21 13:40:08;;;;;;;;;;;19.10;99.90;;;;;;5001531;28;19947;-76
2022/05/21 13:42:36;;;;;;;;;;;19.20;99.90;;;;;;5025967;28;19917;-76
2022/05/21 13:45:10;;;;;;;;;;;19.10;99.90;;;;;;5027580;28;19917;-75
2022/05/21 13:47:39;;;;;;;;;;;19.00;99.90;;;;;;5026797;28;20000;-75
2022/05/21 13:50:05;;;;;;;;;;;19.00;99.90;;;;;;5025795;28;19952;-75
2022/05/21 13:52:32;;;;;;;;;;;18.90;99.90;;;;;;5026192;28;20243;-76
2022/05/21 13:54:58;;;;;;;;;;;18.90;99.90;;;;;;5025294;28;19925;-76
2022/05/21 13:57:25;;;;;;;;;;;19.00;99.90;;;;;;5023905;28;19921;-77
2022/05/21 13:59:53;;;;;;;;;;;18.90;99.90;;;;;;5010925;28;19921;-75
2022/05/21 14:02:21;;;;;;;;;;;18.80;99.90;;;;;;5026324;28;19921;-78
2022/05/21 14:04:46;;;;;;;;;;;18.70;99.90;;;;;;5013140;28;20388;-78
2022/05/21 14:07:21;;;;;;;;;;;18.50;99.90;;;;;;5030549;28;20016;-77
2022/05/21 14:09:47;;;;;;;;;;;18.50;99.90;;;;;;5044758;28;19922;-75
2022/05/21 14:12:29;;;;;;;;;;;18.50;99.90;;;;;;5115009;28;19955;-74
2022/05/21 14:14:55;;;;;;;;;;;18.20;99.90;;;;;;5111768;27;19915;-76
2022/05/21 14:17:34;;;;;;;;;;;18.10;99.90;;;;;;5111368;28;19916;-75
2022/05/21 14:20:01;;;;;;;;;;;17.90;99.90;;;;;;5108423;27;19935;-75
2022/05/21 14:22:26;;;;;;;;;;;17.90;99.90;;;;;;5106486;28;20014;-78
2022/05/21 14:24:52;;;;;;;;;;;17.80;99.90;;;;;;5107015;28;20007;-76
2022/05/21 14:27:24;;;;;;;;;;;17.70;99.90;;;;;;5106670;28;20001;-76
2022/05/21 14:29:54;;;;;;;;;;;17.90;99.90;;;;;;5113877;28;19926;-79
2022/05/21 14:32:22;;;;;;;;;;;18.30;99.90;;;;;;5107995;28;19923;-76
2022/05/21 14:35:08;;;;;;;;;;;18.30;99.90;;;;;;5101430;28;19916;-77
2022/05/21 14:37:33;;;;;;;;;;;18.20;99.90;;;;;;5106114;28;19919;-76
2022/05/21 14:39:59;;;;;;;;;;;18.20;99.90;;;;;;5105477;28;19920;-75
2022/05/21 14:42:26;;;;;;;;;;;18.40;99.90;;;;;;5109528;28;19916;-75
2022/05/21 14:44:52;;;;;;;;;;;18.20;99.90;;;;;;5101313;28;19915;-75
2022/05/21 14:52:52;;;;;;;;;;;18.50;99.90;;;;;;5100624;27;19925;-77
2022/05/21 14:55:19;;;;;;;;;;;18.60;99.90;;;;;;5098608;28;20221;-78
2022/05/21 14:57:44;;;;;;;;;;;18.30;99.90;;;;;;5097455;28;19920;-75
2022/05/21 15:00:11;;;;;;;;;;;18.10;99.90;;;;;;5098940;28;19927;-78
2022/05/21 15:02:37;;;;;;;;;;;18.00;99.90;;;;;;5100782;28;19947;-75
2022/05/21 15:05:04;;;;;;;;;;;18.20;99.90;;;;;;5106212;28;19916;-79
2022/05/21 15:07:30;;;;;;;;;;;18.10;99.90;;;;;;5105745;28;19931;-79
2022/05/21 15:09:56;;;;;;;;;;;17.90;99.90;;;;;;5114208;28;19920;-76